Airfield :
LOGIN :

Register | Disclaimer

   EN    FR    IT 

 










Legend :    VFR   Marginal VFR   IFR   Intensive IFR   Very Intensive IFR
Visi :
Ceiling :
>= 8 km
>= 3000ft
5 to 8 km
1000 to 3000 ft
1500m to 5 km
500 to 1000 ft
800 to 1500m
200 to 500 ft
< 800m
< 200 ft
Symbols :   Thunderstorms  Fog  Heavy snow  Heavy precipitations  Wind > 20 kt
SIGMETs :     Misc.  Thunderstorms  Icing  Turbulence  Mountain Waves  Volcanic Ashes







- Airport Elevation : 12 ft
- IATA code : BCN


LEBL - Barcelone

CURRENT METAR :
  • 220800Z 06018KT 9999 FEW030 SCT045 16/09 Q1001 NOSIG

EXPIRED METARs :
  • 220730Z 05016KT 9999 FEW030CB SCT043 BKN050 16/09 Q1001 NOSIG
  • 220700Z 04016KT 9999 SCT030CB SCT050 15/10 Q1001 RESHRA NOSIG
  • 220645Z 05017G28KT 9999 SHRA SCT030CB 15/10 Q1001 NOSIG
  • 220625Z 05017KT 9999 TSRA SCT025CB BKN030 16/10 Q1001 NOSIG
  • 220619Z 05017KT 9999 TS VCSH FEW025CB BKN030 16/10 Q1002 NOSIG
  • 220601Z 05014KT 9999 SHRA FEW025TCU BKN030 16/09 Q1001 NOSIG
  • 220530Z 04015KT 9999 FEW030 16/08 Q1001 NOSIG

TAF TAF LEBL
Valid from the 22 at 06:00 until the 23 at 06:00 UTC


220500Z 2206/2306 06015KT 9999 FEW020 BKN040 TX20/2212Z TN14/2206Z
TEMPO 2207/2217 06025G35KT
BECMG 2220/2222 36009KT
PROB30
TEMPO 2206/2210 4000 TSRA SCT025CB BKN040
No reported NOTAMs for that airfield.
1 SIGMET reported for the Barcelona FIR (LECB) :
 
Embedded thunderstorms
LECB SIGMET 1 VALID 220637/220800 LEVA
LECB BARCELONA FIR/UIR EMBD TS OBS AT 0637Z WI N4045 E00149 - N4137 E004 - N4219 E00334 - N4239 E00107 - N4045 E00149 TOP FL360 MOV NW NC=



MET'MAP, your aeronautical weather chart ! - Copyright ORBIFLY December 2007 - Disclaimer

ORBIFLY MET'MAP TEAM :

Programming & Development : Alexandra Zaïnal
Concept & Development : Baudouin d'Aumeries
Co-Development & Prog : Marc-Olivier Méhu
Technical & hardware support : Manuel Goepfert

Contact : metmap@orbifly.com




SOURCES & CREDITS :

   NOAA